sensor_id;sensor_type;location;lat;lon;timestamp;P1;durP1;ratioP1;P2;durP2;ratioP2
14688;SDS011;7432;48.728;9.154;2023-11-18T00:02:05;7.77;;;7.00;;
14688;SDS011;7432;48.728;9.154;2023-11-18T00:04:33;7.07;;;6.47;;
14688;SDS011;7432;48.728;9.154;2023-11-18T00:07:00;6.67;;;6.27;;
14688;SDS011;7432;48.728;9.154;2023-11-18T00:09:28;7.57;;;6.97;;
14688;SDS011;7432;48.728;9.154;2023-11-18T00:11:56;7.13;;;6.63;;
14688;SDS011;7432;48.728;9.154;2023-11-18T00:14:22;6.90;;;6.40;;
14688;SDS011;7432;48.728;9.154;2023-11-18T00:16:48;7.57;;;6.97;;
14688;SDS011;7432;48.728;9.154;2023-11-18T00:19:15;7.10;;;6.40;;
14688;SDS011;7432;48.728;9.154;2023-11-18T00:21:42;7.40;;;6.90;;
14688;SDS011;7432;48.728;9.154;2023-11-18T00:24:10;6.80;;;6.30;;
14688;SDS011;7432;48.728;9.154;2023-11-18T00:26:39;7.50;;;6.80;;
14688;SDS011;7432;48.728;9.154;2023-11-18T00:29:05;7.97;;;7.27;;
14688;SDS011;7432;48.728;9.154;2023-11-18T00:31:32;8.53;;;7.70;;
14688;SDS011;7432;48.728;9.154;2023-11-18T00:33:59;8.30;;;7.40;;
14688;SDS011;7432;48.728;9.154;2023-11-18T00:36:25;7.13;;;6.53;;
14688;SDS011;7432;48.728;9.154;2023-11-18T00:38:51;8.03;;;7.40;;
14688;SDS011;7432;48.728;9.154;2023-11-18T00:41:19;7.17;;;6.67;;
14688;SDS011;7432;48.728;9.154;2023-11-18T00:43:46;8.03;;;7.43;;
14688;SDS011;7432;48.728;9.154;2023-11-18T00:46:12;7.83;;;7.10;;
14688;SDS011;7432;48.728;9.154;2023-11-18T00:48:39;7.57;;;7.07;;
14688;SDS011;7432;48.728;9.154;2023-11-18T00:51:05;7.07;;;6.57;;
14688;SDS011;7432;48.728;9.154;2023-11-18T00:53:32;7.27;;;6.67;;
14688;SDS011;7432;48.728;9.154;2023-11-18T00:55:58;7.67;;;6.97;;
14688;SDS011;7432;48.728;9.154;2023-11-18T00:58:27;6.70;;;6.20;;
14688;SDS011;7432;48.728;9.154;2023-11-18T01:00:53;7.33;;;6.73;;
14688;SDS011;7432;48.728;9.154;2023-11-18T01:03:20;8.23;;;7.53;;
14688;SDS011;7432;48.728;9.154;2023-11-18T01:05:46;7.30;;;6.70;;
14688;SDS011;7432;48.728;9.154;2023-11-18T01:08:12;7.00;;;6.50;;
14688;SDS011;7432;48.728;9.154;2023-11-18T01:10:39;7.30;;;6.70;;
14688;SDS011;7432;48.728;9.154;2023-11-18T01:13:05;7.17;;;6.57;;
14688;SDS011;7432;48.728;9.154;2023-11-18T01:15:33;6.37;;;5.73;;
14688;SDS011;7432;48.728;9.154;2023-11-18T01:17:59;6.27;;;5.77;;
14688;SDS011;7432;48.728;9.154;2023-11-18T01:20:26;6.50;;;6.00;;
14688;SDS011;7432;48.728;9.154;2023-11-18T01:22:52;7.33;;;6.40;;
14688;SDS011;7432;48.728;9.154;2023-11-18T01:25:19;7.07;;;6.37;;
14688;SDS011;7432;48.728;9.154;2023-11-18T01:27:45;6.30;;;5.80;;
14688;SDS011;7432;48.728;9.154;2023-11-18T01:30:12;7.33;;;6.73;;
14688;SDS011;7432;48.728;9.154;2023-11-18T01:32:40;7.13;;;6.63;;
14688;SDS011;7432;48.728;9.154;2023-11-18T01:35:07;6.90;;;6.40;;
14688;SDS011;7432;48.728;9.154;2023-11-18T01:37:35;7.33;;;6.63;;
14688;SDS011;7432;48.728;9.154;2023-11-18T01:40:02;7.20;;;6.60;;
14688;SDS011;7432;48.728;9.154;2023-11-18T01:42:32;6.27;;;5.83;;
14688;SDS011;7432;48.728;9.154;2023-11-18T01:44:58;6.43;;;6.03;;
14688;SDS011;7432;48.728;9.154;2023-11-18T01:47:28;6.97;;;6.47;;
14688;SDS011;7432;48.728;9.154;2023-11-18T01:49:58;6.70;;;6.20;;
14688;SDS011;7432;48.728;9.154;2023-11-18T01:52:25;6.97;;;6.43;;
14688;SDS011;7432;48.728;9.154;2023-11-18T01:54:52;6.63;;;6.13;;
14688;SDS011;7432;48.728;9.154;2023-11-18T01:57:20;6.37;;;5.87;;
14688;SDS011;7432;48.728;9.154;2023-11-18T01:59:47;6.37;;;5.93;;
14688;SDS011;7432;48.728;9.154;2023-11-18T02:02:13;7.03;;;6.53;;
14688;SDS011;7432;48.728;9.154;2023-11-18T02:04:39;6.37;;;5.97;;
14688;SDS011;7432;48.728;9.154;2023-11-18T02:07:07;6.00;;;5.60;;
14688;SDS011;7432;48.728;9.154;2023-11-18T02:09:34;6.37;;;5.83;;
14688;SDS011;7432;48.728;9.154;2023-11-18T02:12:04;6.30;;;5.90;;
14688;SDS011;7432;48.728;9.154;2023-11-18T02:14:41;7.00;;;6.40;;
14688;SDS011;7432;48.728;9.154;2023-11-18T02:17:11;6.83;;;6.10;;
14688;SDS011;7432;48.728;9.154;2023-11-18T02:19:40;6.87;;;6.37;;
14688;SDS011;7432;48.728;9.154;2023-11-18T02:22:09;6.60;;;6.10;;
14688;SDS011;7432;48.728;9.154;2023-11-18T02:24:37;6.47;;;5.97;;
14688;SDS011;7432;48.728;9.154;2023-11-18T02:27:07;6.30;;;5.80;;
14688;SDS011;7432;48.728;9.154;2023-11-18T02:29:37;5.73;;;5.33;;
14688;SDS011;7432;48.728;9.154;2023-11-18T02:32:07;5.90;;;5.50;;
14688;SDS011;7432;48.728;9.154;2023-11-18T02:34:41;5.53;;;5.20;;
14688;SDS011;7432;48.728;9.154;2023-11-18T02:37:16;6.27;;;5.87;;
14688;SDS011;7432;48.728;9.154;2023-11-18T02:39:43;6.10;;;5.60;;
14688;SDS011;7432;48.728;9.154;2023-11-18T02:42:15;5.87;;;5.47;;
14688;SDS011;7432;48.728;9.154;2023-11-18T02:44:42;5.80;;;5.50;;
14688;SDS011;7432;48.728;9.154;2023-11-18T02:47:10;6.23;;;5.73;;
14688;SDS011;7432;48.728;9.154;2023-11-18T02:49:37;5.97;;;5.57;;
14688;SDS011;7432;48.728;9.154;2023-11-18T02:52:04;6.27;;;5.77;;
14688;SDS011;7432;48.728;9.154;2023-11-18T02:54:31;6.50;;;6.00;;
14688;SDS011;7432;48.728;9.154;2023-11-18T02:56:57;6.37;;;5.90;;
14688;SDS011;7432;48.728;9.154;2023-11-18T02:59:25;5.90;;;5.57;;
14688;SDS011;7432;48.728;9.154;2023-11-18T03:01:55;6.80;;;6.20;;
14688;SDS011;7432;48.728;9.154;2023-11-18T03:04:21;6.17;;;5.77;;
14688;SDS011;7432;48.728;9.154;2023-11-18T03:06:48;6.30;;;5.90;;
14688;SDS011;7432;48.728;9.154;2023-11-18T03:09:15;5.80;;;5.43;;
14688;SDS011;7432;48.728;9.154;2023-11-18T03:11:41;6.50;;;6.00;;
14688;SDS011;7432;48.728;9.154;2023-11-18T03:14:09;6.53;;;6.13;;
14688;SDS011;7432;48.728;9.154;2023-11-18T03:16:37;6.90;;;6.40;;
14688;SDS011;7432;48.728;9.154;2023-11-18T03:19:04;6.17;;;5.87;;
14688;SDS011;7432;48.728;9.154;2023-11-18T03:21:32;6.03;;;5.63;;
14688;SDS011;7432;48.728;9.154;2023-11-18T03:23:58;6.13;;;5.60;;
14688;SDS011;7432;48.728;9.154;2023-11-18T03:26:24;6.67;;;6.20;;
14688;SDS011;7432;48.728;9.154;2023-11-18T03:28:51;6.13;;;5.73;;
14688;SDS011;7432;48.728;9.154;2023-11-18T03:31:18;6.63;;;6.13;;
14688;SDS011;7432;48.728;9.154;2023-11-18T03:33:46;6.43;;;6.03;;
14688;SDS011;7432;48.728;9.154;2023-11-18T03:36:12;6.47;;;6.07;;
14688;SDS011;7432;48.728;9.154;2023-11-18T03:38:38;7.30;;;6.80;;
14688;SDS011;7432;48.728;9.154;2023-11-18T03:41:05;7.13;;;6.73;;
14688;SDS011;7432;48.728;9.154;2023-11-18T03:43:33;6.40;;;6.00;;
14688;SDS011;7432;48.728;9.154;2023-11-18T03:45:59;6.90;;;6.50;;
14688;SDS011;7432;48.728;9.154;2023-11-18T03:48:26;7.00;;;6.50;;
14688;SDS011;7432;48.728;9.154;2023-11-18T03:50:53;6.70;;;6.20;;
14688;SDS011;7432;48.728;9.154;2023-11-18T03:53:20;6.70;;;6.30;;
14688;SDS011;7432;48.728;9.154;2023-11-18T03:55:46;6.40;;;6.00;;
14688;SDS011;7432;48.728;9.154;2023-11-18T03:58:12;6.70;;;6.20;;
14688;SDS011;7432;48.728;9.154;2023-11-18T04:00:39;6.67;;;6.27;;
14688;SDS011;7432;48.728;9.154;2023-11-18T04:03:05;6.90;;;6.40;;
14688;SDS011;7432;48.728;9.154;2023-11-18T04:05:32;6.30;;;5.90;;
14688;SDS011;7432;48.728;9.154;2023-11-18T04:08:01;7.30;;;6.80;;
14688;SDS011;7432;48.728;9.154;2023-11-18T04:10:27;6.77;;;6.27;;
14688;SDS011;7432;48.728;9.154;2023-11-18T04:12:53;6.67;;;6.27;;
14688;SDS011;7432;48.728;9.154;2023-11-18T04:15:20;7.23;;;6.53;;
14688;SDS011;7432;48.728;9.154;2023-11-18T04:17:47;7.67;;;7.07;;
14688;SDS011;7432;48.728;9.154;2023-11-18T04:20:13;6.63;;;6.23;;
14688;SDS011;7432;48.728;9.154;2023-11-18T04:22:41;7.40;;;6.80;;
14688;SDS011;7432;48.728;9.154;2023-11-18T04:25:09;7.77;;;7.17;;
14688;SDS011;7432;48.728;9.154;2023-11-18T04:27:36;6.90;;;6.50;;
14688;SDS011;7432;48.728;9.154;2023-11-18T04:30:02;6.73;;;6.23;;
14688;SDS011;7432;48.728;9.154;2023-11-18T04:32:29;6.53;;;6.13;;
14688;SDS011;7432;48.728;9.154;2023-11-18T04:34:57;6.73;;;6.23;;
14688;SDS011;7432;48.728;9.154;2023-11-18T04:37:24;6.60;;;6.20;;
14688;SDS011;7432;48.728;9.154;2023-11-18T04:39:51;6.60;;;6.20;;
14688;SDS011;7432;48.728;9.154;2023-11-18T04:42:21;6.77;;;6.27;;
14688;SDS011;7432;48.728;9.154;2023-11-18T04:44:48;7.00;;;6.47;;
14688;SDS011;7432;48.728;9.154;2023-11-18T04:47:15;7.20;;;6.70;;
14688;SDS011;7432;48.728;9.154;2023-11-18T04:49:43;6.67;;;6.27;;
14688;SDS011;7432;48.728;9.154;2023-11-18T04:52:09;7.10;;;6.60;;
14688;SDS011;7432;48.728;9.154;2023-11-18T04:54:36;6.80;;;6.30;;
14688;SDS011;7432;48.728;9.154;2023-11-18T04:57:02;6.63;;;6.23;;
14688;SDS011;7432;48.728;9.154;2023-11-18T04:59:30;6.70;;;6.20;;
14688;SDS011;7432;48.728;9.154;2023-11-18T05:01:57;7.17;;;6.67;;
14688;SDS011;7432;48.728;9.154;2023-11-18T05:04:23;7.20;;;6.77;;
14688;SDS011;7432;48.728;9.154;2023-11-18T05:06:49;6.90;;;6.50;;
14688;SDS011;7432;48.728;9.154;2023-11-18T05:09:16;7.20;;;6.70;;
14688;SDS011;7432;48.728;9.154;2023-11-18T05:11:43;7.20;;;6.70;;
14688;SDS011;7432;48.728;9.154;2023-11-18T05:14:09;7.57;;;6.97;;
14688;SDS011;7432;48.728;9.154;2023-11-18T05:16:37;7.40;;;6.87;;
14688;SDS011;7432;48.728;9.154;2023-11-18T05:19:04;7.47;;;6.97;;
14688;SDS011;7432;48.728;9.154;2023-11-18T05:21:30;6.63;;;6.23;;
14688;SDS011;7432;48.728;9.154;2023-11-18T05:23:56;6.80;;;6.40;;
14688;SDS011;7432;48.728;9.154;2023-11-18T05:26:23;7.37;;;6.87;;
14688;SDS011;7432;48.728;9.154;2023-11-18T05:28:49;7.33;;;6.83;;
14688;SDS011;7432;48.728;9.154;2023-11-18T05:31:16;7.57;;;7.03;;
14688;SDS011;7432;48.728;9.154;2023-11-18T05:33:44;7.80;;;7.20;;
14688;SDS011;7432;48.728;9.154;2023-11-18T05:36:16;7.37;;;6.87;;
14688;SDS011;7432;48.728;9.154;2023-11-18T05:38:51;7.53;;;7.03;;
14688;SDS011;7432;48.728;9.154;2023-11-18T05:41:18;7.90;;;7.30;;
14688;SDS011;7432;48.728;9.154;2023-11-18T05:43:52;7.73;;;7.13;;
14688;SDS011;7432;48.728;9.154;2023-11-18T05:46:21;7.27;;;6.77;;
14688;SDS011;7432;48.728;9.154;2023-11-18T05:48:51;7.57;;;6.97;;
14688;SDS011;7432;48.728;9.154;2023-11-18T05:51:18;7.13;;;6.63;;
14688;SDS011;7432;48.728;9.154;2023-11-18T05:53:47;6.87;;;6.37;;
14688;SDS011;7432;48.728;9.154;2023-11-18T05:56:13;7.90;;;7.30;;
14688;SDS011;7432;48.728;9.154;2023-11-18T05:58:41;8.27;;;7.67;;
14688;SDS011;7432;48.728;9.154;2023-11-18T06:01:08;8.10;;;7.50;;
14688;SDS011;7432;48.728;9.154;2023-11-18T06:03:36;8.27;;;7.50;;
14688;SDS011;7432;48.728;9.154;2023-11-18T06:06:05;9.10;;;8.30;;
14688;SDS011;7432;48.728;9.154;2023-11-18T06:08:32;8.20;;;7.60;;
14688;SDS011;7432;48.728;9.154;2023-11-18T06:10:59;7.97;;;7.47;;
14688;SDS011;7432;48.728;9.154;2023-11-18T06:13:30;7.80;;;7.20;;
14688;SDS011;7432;48.728;9.154;2023-11-18T06:15:57;8.57;;;7.70;;
14688;SDS011;7432;48.728;9.154;2023-11-18T06:18:24;8.30;;;7.70;;
14688;SDS011;7432;48.728;9.154;2023-11-18T06:20:50;7.83;;;7.23;;
14688;SDS011;7432;48.728;9.154;2023-11-18T06:23:18;8.47;;;7.77;;
14688;SDS011;7432;48.728;9.154;2023-11-18T06:25:46;8.30;;;7.70;;
14688;SDS011;7432;48.728;9.154;2023-11-18T06:28:13;8.40;;;7.70;;
14688;SDS011;7432;48.728;9.154;2023-11-18T06:30:40;8.77;;;8.07;;
14688;SDS011;7432;48.728;9.154;2023-11-18T06:33:06;9.00;;;8.20;;
14688;SDS011;7432;48.728;9.154;2023-11-18T06:35:33;8.90;;;8.20;;
14688;SDS011;7432;48.728;9.154;2023-11-18T06:38:00;8.23;;;7.63;;
14688;SDS011;7432;48.728;9.154;2023-11-18T06:40:29;8.67;;;7.90;;
14688;SDS011;7432;48.728;9.154;2023-11-18T06:42:55;8.70;;;8.10;;
14688;SDS011;7432;48.728;9.154;2023-11-18T06:45:26;8.83;;;8.13;;
14688;SDS011;7432;48.728;9.154;2023-11-18T06:47:56;8.33;;;7.63;;
14688;SDS011;7432;48.728;9.154;2023-11-18T06:50:23;8.53;;;7.93;;
14688;SDS011;7432;48.728;9.154;2023-11-18T06:52:51;8.10;;;7.50;;
14688;SDS011;7432;48.728;9.154;2023-11-18T06:55:18;9.13;;;8.33;;
14688;SDS011;7432;48.728;9.154;2023-11-18T06:57:46;8.43;;;7.83;;
14688;SDS011;7432;48.728;9.154;2023-11-18T07:00:13;8.87;;;8.17;;
14688;SDS011;7432;48.728;9.154;2023-11-18T07:02:40;9.17;;;8.33;;
14688;SDS011;7432;48.728;9.154;2023-11-18T07:05:07;9.73;;;9.03;;
14688;SDS011;7432;48.728;9.154;2023-11-18T07:07:34;9.07;;;8.37;;
14688;SDS011;7432;48.728;9.154;2023-11-18T07:10:00;9.07;;;8.33;;
14688;SDS011;7432;48.728;9.154;2023-11-18T07:12:26;8.93;;;8.13;;
14688;SDS011;7432;48.728;9.154;2023-11-18T07:14:54;9.50;;;8.80;;
14688;SDS011;7432;48.728;9.154;2023-11-18T07:17:20;9.97;;;9.17;;
14688;SDS011;7432;48.728;9.154;2023-11-18T07:19:47;8.87;;;8.17;;
14688;SDS011;7432;48.728;9.154;2023-11-18T07:22:14;8.77;;;8.07;;
14688;SDS011;7432;48.728;9.154;2023-11-18T07:24:40;9.30;;;8.50;;
14688;SDS011;7432;48.728;9.154;2023-11-18T07:27:08;9.57;;;8.63;;
14688;SDS011;7432;48.728;9.154;2023-11-18T07:29:36;9.03;;;8.33;;
14688;SDS011;7432;48.728;9.154;2023-11-18T07:32:04;8.67;;;7.97;;
14688;SDS011;7432;48.728;9.154;2023-11-18T07:34:31;8.80;;;8.10;;
14688;SDS011;7432;48.728;9.154;2023-11-18T07:36:58;9.17;;;8.47;;
14688;SDS011;7432;48.728;9.154;2023-11-18T07:39:25;7.93;;;7.33;;
14688;SDS011;7432;48.728;9.154;2023-11-18T07:42:08;8.53;;;7.93;;
14688;SDS011;7432;48.728;9.154;2023-11-18T07:44:35;8.80;;;8.17;;
14688;SDS011;7432;48.728;9.154;2023-11-18T07:47:01;8.63;;;7.93;;
14688;SDS011;7432;48.728;9.154;2023-11-18T07:49:30;8.97;;;8.33;;
14688;SDS011;7432;48.728;9.154;2023-11-18T07:51:57;9.17;;;8.57;;
14688;SDS011;7432;48.728;9.154;2023-11-18T07:54:23;8.37;;;7.80;;
14688;SDS011;7432;48.728;9.154;2023-11-18T07:56:49;8.90;;;8.30;;
14688;SDS011;7432;48.728;9.154;2023-11-18T07:59:17;8.17;;;7.67;;
14688;SDS011;7432;48.728;9.154;2023-11-18T08:01:43;9.03;;;8.43;;
14688;SDS011;7432;48.728;9.154;2023-11-18T08:04:11;9.53;;;8.90;;
14688;SDS011;7432;48.728;9.154;2023-11-18T08:06:40;9.47;;;8.87;;
14688;SDS011;7432;48.728;9.154;2023-11-18T08:09:08;9.10;;;8.60;;
14688;SDS011;7432;48.728;9.154;2023-11-18T08:11:38;9.20;;;8.40;;
14688;SDS011;7432;48.728;9.154;2023-11-18T08:14:06;9.67;;;8.70;;
14688;SDS011;7432;48.728;9.154;2023-11-18T08:16:32;8.97;;;8.47;;
14688;SDS011;7432;48.728;9.154;2023-11-18T08:18:59;9.07;;;8.47;;
14688;SDS011;7432;48.728;9.154;2023-11-18T08:21:27;9.20;;;8.50;;
14688;SDS011;7432;48.728;9.154;2023-11-18T08:23:55;8.97;;;8.37;;
14688;SDS011;7432;48.728;9.154;2023-11-18T08:26:23;8.50;;;7.90;;
14688;SDS011;7432;48.728;9.154;2023-11-18T08:28:50;8.93;;;8.23;;
14688;SDS011;7432;48.728;9.154;2023-11-18T08:31:16;8.33;;;7.83;;
14688;SDS011;7432;48.728;9.154;2023-11-18T08:33:43;8.70;;;8.00;;
14688;SDS011;7432;48.728;9.154;2023-11-18T08:36:10;7.30;;;6.90;;
14688;SDS011;7432;48.728;9.154;2023-11-18T08:38:37;8.10;;;7.50;;
14688;SDS011;7432;48.728;9.154;2023-11-18T08:41:06;8.27;;;7.73;;
14688;SDS011;7432;48.728;9.154;2023-11-18T08:43:34;8.77;;;8.07;;
14688;SDS011;7432;48.728;9.154;2023-11-18T08:46:00;7.80;;;7.30;;
14688;SDS011;7432;48.728;9.154;2023-11-18T08:48:26;7.70;;;7.20;;
14688;SDS011;7432;48.728;9.154;2023-11-18T08:50:53;8.37;;;7.87;;
14688;SDS011;7432;48.728;9.154;2023-11-18T08:53:20;7.80;;;7.33;;
14688;SDS011;7432;48.728;9.154;2023-11-18T08:55:51;7.53;;;7.03;;
14688;SDS011;7432;48.728;9.154;2023-11-18T08:58:20;7.53;;;6.87;;
14688;SDS011;7432;48.728;9.154;2023-11-18T09:00:48;7.00;;;6.50;;
14688;SDS011;7432;48.728;9.154;2023-11-18T09:03:18;6.50;;;6.10;;
14688;SDS011;7432;48.728;9.154;2023-11-18T09:05:50;7.10;;;6.60;;
14688;SDS011;7432;48.728;9.154;2023-11-18T09:08:24;6.67;;;6.13;;
14688;SDS011;7432;48.728;9.154;2023-11-18T09:10:52;7.03;;;6.63;;
14688;SDS011;7432;48.728;9.154;2023-11-18T09:13:21;7.13;;;6.53;;
14688;SDS011;7432;48.728;9.154;2023-11-18T09:15:48;6.97;;;6.50;;
14688;SDS011;7432;48.728;9.154;2023-11-18T09:18:15;7.17;;;6.77;;
14688;SDS011;7432;48.728;9.154;2023-11-18T09:20:43;7.30;;;6.80;;
14688;SDS011;7432;48.728;9.154;2023-11-18T09:23:10;7.60;;;7.10;;
14688;SDS011;7432;48.728;9.154;2023-11-18T09:25:36;7.90;;;7.27;;
14688;SDS011;7432;48.728;9.154;2023-11-18T09:28:05;6.90;;;6.47;;
14688;SDS011;7432;48.728;9.154;2023-11-18T09:30:36;7.27;;;6.70;;
14688;SDS011;7432;48.728;9.154;2023-11-18T09:33:14;6.80;;;6.40;;
14688;SDS011;7432;48.728;9.154;2023-11-18T09:35:50;7.37;;;6.87;;
14688;SDS011;7432;48.728;9.154;2023-11-18T09:38:17;6.50;;;6.03;;
14688;SDS011;7432;48.728;9.154;2023-11-18T09:40:44;7.30;;;6.70;;
14688;SDS011;7432;48.728;9.154;2023-11-18T09:43:13;7.67;;;7.17;;
14688;SDS011;7432;48.728;9.154;2023-11-18T09:45:42;7.40;;;6.70;;
14688;SDS011;7432;48.728;9.154;2023-11-18T09:48:11;7.20;;;6.60;;
14688;SDS011;7432;48.728;9.154;2023-11-18T09:50:42;6.73;;;6.33;;
14688;SDS011;7432;48.728;9.154;2023-11-18T09:53:12;6.93;;;6.53;;
14688;SDS011;7432;48.728;9.154;2023-11-18T09:55:42;6.60;;;6.10;;
14688;SDS011;7432;48.728;9.154;2023-11-18T09:58:15;6.97;;;6.57;;
14688;SDS011;7432;48.728;9.154;2023-11-18T10:00:50;7.27;;;6.70;;
14688;SDS011;7432;48.728;9.154;2023-11-18T10:03:23;7.97;;;7.17;;
14688;SDS011;7432;48.728;9.154;2023-11-18T10:05:50;7.20;;;6.73;;
14688;SDS011;7432;48.728;9.154;2023-11-18T10:08:19;7.17;;;6.77;;
14688;SDS011;7432;48.728;9.154;2023-11-18T10:10:50;7.10;;;6.70;;
14688;SDS011;7432;48.728;9.154;2023-11-18T10:13:29;7.40;;;6.70;;
14688;SDS011;7432;48.728;9.154;2023-11-18T10:15:57;8.30;;;7.60;;
14688;SDS011;7432;48.728;9.154;2023-11-18T10:18:24;8.60;;;7.80;;
14688;SDS011;7432;48.728;9.154;2023-11-18T10:20:53;7.43;;;6.93;;
14688;SDS011;7432;48.728;9.154;2023-11-18T10:23:20;6.90;;;6.40;;
14688;SDS011;7432;48.728;9.154;2023-11-18T10:25:49;7.07;;;6.60;;
14688;SDS011;7432;48.728;9.154;2023-11-18T10:28:21;7.20;;;6.63;;
14688;SDS011;7432;48.728;9.154;2023-11-18T10:30:48;7.27;;;6.83;;
14688;SDS011;7432;48.728;9.154;2023-11-18T10:33:17;7.70;;;7.20;;
14688;SDS011;7432;48.728;9.154;2023-11-18T10:35:50;7.20;;;6.80;;
14688;SDS011;7432;48.728;9.154;2023-11-18T10:38:17;6.70;;;6.30;;
14688;SDS011;7432;48.728;9.154;2023-11-18T10:40:44;7.30;;;6.80;;
14688;SDS011;7432;48.728;9.154;2023-11-18T10:43:11;7.03;;;6.53;;
14688;SDS011;7432;48.728;9.154;2023-11-18T10:45:37;7.43;;;7.03;;
14688;SDS011;7432;48.728;9.154;2023-11-18T10:48:05;7.03;;;6.63;;
14688;SDS011;7432;48.728;9.154;2023-11-18T10:50:33;7.30;;;6.80;;
14688;SDS011;7432;48.728;9.154;2023-11-18T10:53:00;6.67;;;6.27;;
14688;SDS011;7432;48.728;9.154;2023-11-18T10:55:34;7.20;;;6.80;;
14688;SDS011;7432;48.728;9.154;2023-11-18T10:58:02;6.80;;;6.37;;
14688;SDS011;7432;48.728;9.154;2023-11-18T11:00:29;7.30;;;6.90;;
14688;SDS011;7432;48.728;9.154;2023-11-18T11:02:58;7.57;;;7.00;;
14688;SDS011;7432;48.728;9.154;2023-11-18T11:05:27;7.07;;;6.57;;
14688;SDS011;7432;48.728;9.154;2023-11-18T11:07:58;7.30;;;6.70;;
14688;SDS011;7432;48.728;9.154;2023-11-18T11:10:27;7.10;;;6.73;;
14688;SDS011;7432;48.728;9.154;2023-11-18T11:12:55;7.57;;;7.07;;
14688;SDS011;7432;48.728;9.154;2023-11-18T11:15:29;7.50;;;7.10;;
14688;SDS011;7432;48.728;9.154;2023-11-18T11:17:58;7.17;;;6.70;;
14688;SDS011;7432;48.728;9.154;2023-11-18T11:20:34;7.73;;;7.23;;
14688;SDS011;7432;48.728;9.154;2023-11-18T11:23:09;6.83;;;6.43;;
14688;SDS011;7432;48.728;9.154;2023-11-18T11:25:47;6.67;;;6.17;;
14688;SDS011;7432;48.728;9.154;2023-11-18T11:28:22;7.47;;;6.80;;
14688;SDS011;7432;48.728;9.154;2023-11-18T11:30:50;6.97;;;6.57;;
14688;SDS011;7432;48.728;9.154;2023-11-18T11:33:22;7.67;;;7.17;;
14688;SDS011;7432;48.728;9.154;2023-11-18T11:35:57;6.87;;;6.47;;
14688;SDS011;7432;48.728;9.154;2023-11-18T11:38:29;7.23;;;6.83;;
14688;SDS011;7432;48.728;9.154;2023-11-18T11:40:58;7.90;;;7.40;;
14688;SDS011;7432;48.728;9.154;2023-11-18T11:43:29;8.03;;;7.43;;
14688;SDS011;7432;48.728;9.154;2023-11-18T11:45:59;6.90;;;6.50;;
14688;SDS011;7432;48.728;9.154;2023-11-18T11:48:28;7.43;;;6.93;;
14688;SDS011;7432;48.728;9.154;2023-11-18T11:51:07;7.37;;;6.87;;
14688;SDS011;7432;48.728;9.154;2023-11-18T11:53:47;7.10;;;6.70;;
14688;SDS011;7432;48.728;9.154;2023-11-18T11:56:18;7.43;;;6.83;;
14688;SDS011;7432;48.728;9.154;2023-11-18T11:58:49;7.07;;;6.67;;
14688;SDS011;7432;48.728;9.154;2023-11-18T12:01:27;7.33;;;6.83;;
14688;SDS011;7432;48.728;9.154;2023-11-18T12:04:02;6.67;;;6.27;;
14688;SDS011;7432;48.728;9.154;2023-11-18T12:06:31;6.77;;;6.37;;
14688;SDS011;7432;48.728;9.154;2023-11-18T12:09:01;6.73;;;6.40;;
14688;SDS011;7432;48.728;9.154;2023-11-18T12:11:32;7.33;;;6.80;;
14688;SDS011;7432;48.728;9.154;2023-11-18T12:14:03;6.87;;;6.47;;
14688;SDS011;7432;48.728;9.154;2023-11-18T12:19:28;7.00;;;6.50;;
14688;SDS011;7432;48.728;9.154;2023-11-18T12:21:56;6.67;;;6.37;;
14688;SDS011;7432;48.728;9.154;2023-11-18T12:24:27;7.10;;;6.60;;
14688;SDS011;7432;48.728;9.154;2023-11-18T12:26:54;8.03;;;7.43;;
14688;SDS011;7432;48.728;9.154;2023-11-18T12:29:30;7.07;;;6.57;;
14688;SDS011;7432;48.728;9.154;2023-11-18T12:31:57;7.40;;;6.87;;
14688;SDS011;7432;48.728;9.154;2023-11-18T12:34:23;7.00;;;6.57;;
14688;SDS011;7432;48.728;9.154;2023-11-18T12:36:57;7.07;;;6.57;;
14688;SDS011;7432;48.728;9.154;2023-11-18T12:40:05;7.10;;;6.70;;
14688;SDS011;7432;48.728;9.154;2023-11-18T12:43:02;7.10;;;6.60;;
14688;SDS011;7432;48.728;9.154;2023-11-18T12:45:41;7.13;;;6.50;;
14688;SDS011;7432;48.728;9.154;2023-11-18T12:48:13;6.97;;;6.60;;
14688;SDS011;7432;48.728;9.154;2023-11-18T12:50:40;6.80;;;6.40;;
14688;SDS011;7432;48.728;9.154;2023-11-18T12:53:08;6.80;;;6.40;;
14688;SDS011;7432;48.728;9.154;2023-11-18T12:55:41;7.00;;;6.60;;
14688;SDS011;7432;48.728;9.154;2023-11-18T12:58:08;7.43;;;6.90;;
14688;SDS011;7432;48.728;9.154;2023-11-18T13:00:36;7.60;;;6.90;;
14688;SDS011;7432;48.728;9.154;2023-11-18T13:03:07;7.80;;;7.20;;
14688;SDS011;7432;48.728;9.154;2023-11-18T13:05:35;7.57;;;6.97;;
14688;SDS011;7432;48.728;9.154;2023-11-18T13:08:02;7.67;;;7.17;;
14688;SDS011;7432;48.728;9.154;2023-11-18T13:10:29;7.47;;;6.93;;
14688;SDS011;7432;48.728;9.154;2023-11-18T13:12:57;6.93;;;6.50;;
14688;SDS011;7432;48.728;9.154;2023-11-18T13:15:25;7.37;;;6.83;;
14688;SDS011;7432;48.728;9.154;2023-11-18T13:17:58;7.80;;;7.17;;
14688;SDS011;7432;48.728;9.154;2023-11-18T13:20:26;6.70;;;6.30;;
14688;SDS011;7432;48.728;9.154;2023-11-18T13:22:52;7.40;;;6.80;;
14688;SDS011;7432;48.728;9.154;2023-11-18T13:25:20;7.60;;;7.10;;
14688;SDS011;7432;48.728;9.154;2023-11-18T13:27:47;7.53;;;7.00;;
14688;SDS011;7432;48.728;9.154;2023-11-18T13:30:15;6.77;;;6.20;;
14688;SDS011;7432;48.728;9.154;2023-11-18T13:32:43;7.57;;;7.03;;
14688;SDS011;7432;48.728;9.154;2023-11-18T13:35:10;7.63;;;7.10;;
14688;SDS011;7432;48.728;9.154;2023-11-18T13:37:38;7.20;;;6.57;;
14688;SDS011;7432;48.728;9.154;2023-11-18T13:40:07;7.30;;;6.90;;
14688;SDS011;7432;48.728;9.154;2023-11-18T13:42:34;6.83;;;6.33;;
14688;SDS011;7432;48.728;9.154;2023-11-18T13:45:03;7.47;;;6.87;;
14688;SDS011;7432;48.728;9.154;2023-11-18T13:47:35;7.70;;;7.20;;
14688;SDS011;7432;48.728;9.154;2023-11-18T13:50:05;7.97;;;7.27;;
14688;SDS011;7432;48.728;9.154;2023-11-18T13:52:33;6.90;;;6.50;;
14688;SDS011;7432;48.728;9.154;2023-11-18T13:55:00;7.23;;;6.83;;
14688;SDS011;7432;48.728;9.154;2023-11-18T13:57:30;8.53;;;6.80;;
14688;SDS011;7432;48.728;9.154;2023-11-18T13:59:57;7.03;;;6.63;;
14688;SDS011;7432;48.728;9.154;2023-11-18T14:02:24;6.97;;;6.57;;
14688;SDS011;7432;48.728;9.154;2023-11-18T14:04:51;8.10;;;7.43;;
14688;SDS011;7432;48.728;9.154;2023-11-18T14:07:20;7.17;;;6.63;;
14688;SDS011;7432;48.728;9.154;2023-11-18T14:09:49;7.47;;;6.97;;
14688;SDS011;7432;48.728;9.154;2023-11-18T14:12:19;7.40;;;6.80;;
14688;SDS011;7432;48.728;9.154;2023-11-18T14:14:47;9.73;;;6.97;;
14688;SDS011;7432;48.728;9.154;2023-11-18T14:17:14;8.03;;;7.27;;
14688;SDS011;7432;48.728;9.154;2023-11-18T14:19:41;7.73;;;7.13;;
14688;SDS011;7432;48.728;9.154;2023-11-18T14:22:09;7.93;;;7.43;;
14688;SDS011;7432;48.728;9.154;2023-11-18T14:24:35;8.60;;;7.90;;
14688;SDS011;7432;48.728;9.154;2023-11-18T14:27:03;10.30;;;9.40;;
14688;SDS011;7432;48.728;9.154;2023-11-18T14:29:32;13.47;;;12.23;;
14688;SDS011;7432;48.728;9.154;2023-11-18T14:31:59;11.20;;;10.23;;
14688;SDS011;7432;48.728;9.154;2023-11-18T14:34:25;10.73;;;9.80;;
14688;SDS011;7432;48.728;9.154;2023-11-18T14:36:52;8.73;;;8.03;;
14688;SDS011;7432;48.728;9.154;2023-11-18T14:39:19;8.67;;;8.07;;
14688;SDS011;7432;48.728;9.154;2023-11-18T14:41:47;10.47;;;9.77;;
14688;SDS011;7432;48.728;9.154;2023-11-18T14:44:14;8.83;;;8.13;;
14688;SDS011;7432;48.728;9.154;2023-11-18T14:46:40;9.93;;;9.03;;
14688;SDS011;7432;48.728;9.154;2023-11-18T14:49:06;12.23;;;11.13;;
14688;SDS011;7432;48.728;9.154;2023-11-18T14:51:35;9.87;;;9.07;;
14688;SDS011;7432;48.728;9.154;2023-11-18T14:54:01;9.30;;;8.50;;
14688;SDS011;7432;48.728;9.154;2023-11-18T14:56:29;9.13;;;8.40;;
14688;SDS011;7432;48.728;9.154;2023-11-18T14:58:55;9.23;;;8.53;;
14688;SDS011;7432;48.728;9.154;2023-11-18T15:01:22;8.33;;;7.77;;
14688;SDS011;7432;48.728;9.154;2023-11-18T15:03:48;9.10;;;8.20;;
14688;SDS011;7432;48.728;9.154;2023-11-18T15:06:15;8.77;;;8.10;;
14688;SDS011;7432;48.728;9.154;2023-11-18T15:08:50;8.87;;;8.07;;
14688;SDS011;7432;48.728;9.154;2023-11-18T15:11:20;8.83;;;8.13;;